sensor_id;sensor_type;location;lat;lon;timestamp;P1;durP1;ratioP1;P2;durP2;ratioP2
63112;SDS011;49206;48.020;21.378;2023-07-02T00:00:45;13.38;;;12.05;;
63112;SDS011;49206;48.020;21.378;2023-07-02T00:01:48;12.98;;;11.60;;
63112;SDS011;49206;48.020;21.378;2023-07-02T00:03:00;14.90;;;11.73;;
63112;SDS011;49206;48.020;21.378;2023-07-02T00:04:03;13.95;;;12.02;;
63112;SDS011;49206;48.020;21.378;2023-07-02T00:05:10;13.65;;;11.88;;
63112;SDS011;49206;48.020;21.378;2023-07-02T00:06:14;16.25;;;12.32;;
63112;SDS011;49206;48.020;21.378;2023-07-02T00:07:21;13.93;;;12.18;;
63112;SDS011;49206;48.020;21.378;2023-07-02T00:08:30;12.88;;;11.48;;
63112;SDS011;49206;48.020;21.378;2023-07-02T00:09:33;17.20;;;12.82;;
63112;SDS011;49206;48.020;21.378;2023-07-02T00:10:36;12.90;;;11.52;;
63112;SDS011;49206;48.020;21.378;2023-07-02T00:11:39;13.02;;;11.45;;
63112;SDS011;49206;48.020;21.378;2023-07-02T00:12:49;14.95;;;12.15;;
63112;SDS011;49206;48.020;21.378;2023-07-02T00:13:54;15.35;;;12.45;;
63112;SDS011;49206;48.020;21.378;2023-07-02T00:15:00;15.15;;;12.20;;
63112;SDS011;49206;48.020;21.378;2023-07-02T00:17:17;14.88;;;11.13;;
63112;SDS011;49206;48.020;21.378;2023-07-02T00:18:28;15.35;;;12.00;;
63112;SDS011;49206;48.020;21.378;2023-07-02T00:19:36;13.38;;;11.52;;
63112;SDS011;49206;48.020;21.378;2023-07-02T00:20:43;13.98;;;11.85;;
63112;SDS011;49206;48.020;21.378;2023-07-02T00:21:56;15.70;;;12.80;;
63112;SDS011;49206;48.020;21.378;2023-07-02T00:23:03;13.63;;;12.23;;
63112;SDS011;49206;48.020;21.378;2023-07-02T00:24:07;19.48;;;12.93;;
63112;SDS011;49206;48.020;21.378;2023-07-02T00:25:15;15.98;;;12.88;;
63112;SDS011;49206;48.020;21.378;2023-07-02T00:26:34;18.42;;;13.55;;
63112;SDS011;49206;48.020;21.378;2023-07-02T00:27:51;14.13;;;12.65;;
63112;SDS011;49206;48.020;21.378;2023-07-02T00:29:09;18.48;;;12.82;;
63112;SDS011;49206;48.020;21.378;2023-07-02T00:30:16;15.32;;;13.73;;
63112;SDS011;49206;48.020;21.378;2023-07-02T00:31:22;19.92;;;14.02;;
63112;SDS011;49206;48.020;21.378;2023-07-02T00:32:25;18.85;;;14.32;;
63112;SDS011;49206;48.020;21.378;2023-07-02T00:33:39;15.70;;;12.85;;
63112;SDS011;49206;48.020;21.378;2023-07-02T00:34:43;19.05;;;11.82;;
63112;SDS011;49206;48.020;21.378;2023-07-02T00:35:52;14.20;;;12.55;;
63112;SDS011;49206;48.020;21.378;2023-07-02T00:36:58;15.63;;;13.13;;
63112;SDS011;49206;48.020;21.378;2023-07-02T00:38:07;14.77;;;12.77;;
63112;SDS011;49206;48.020;21.378;2023-07-02T00:39:13;14.82;;;13.20;;
63112;SDS011;49206;48.020;21.378;2023-07-02T00:40:19;14.48;;;12.98;;
63112;SDS011;49206;48.020;21.378;2023-07-02T00:41:26;15.00;;;12.10;;
63112;SDS011;49206;48.020;21.378;2023-07-02T00:42:31;14.38;;;11.90;;
63112;SDS011;49206;48.020;21.378;2023-07-02T00:43:36;13.63;;;12.23;;
63112;SDS011;49206;48.020;21.378;2023-07-02T00:44:46;13.32;;;12.02;;
63112;SDS011;49206;48.020;21.378;2023-07-02T00:45:56;15.20;;;12.07;;
63112;SDS011;49206;48.020;21.378;2023-07-02T00:46:59;14.90;;;12.95;;
63112;SDS011;49206;48.020;21.378;2023-07-02T00:48:12;14.57;;;13.18;;
63112;SDS011;49206;48.020;21.378;2023-07-02T00:49:22;14.00;;;12.57;;
63112;SDS011;49206;48.020;21.378;2023-07-02T00:50:28;16.05;;;13.15;;
63112;SDS011;49206;48.020;21.378;2023-07-02T00:51:36;15.48;;;13.00;;
63112;SDS011;49206;48.020;21.378;2023-07-02T00:52:41;17.10;;;14.88;;
63112;SDS011;49206;48.020;21.378;2023-07-02T00:53:53;17.13;;;14.48;;
63112;SDS011;49206;48.020;21.378;2023-07-02T00:54:58;15.05;;;13.38;;
63112;SDS011;49206;48.020;21.378;2023-07-02T00:56:04;17.00;;;12.70;;
63112;SDS011;49206;48.020;21.378;2023-07-02T00:57:20;14.20;;;12.70;;
63112;SDS011;49206;48.020;21.378;2023-07-02T00:58:40;20.58;;;13.60;;
63112;SDS011;49206;48.020;21.378;2023-07-02T00:59:51;15.05;;;13.32;;
63112;SDS011;49206;48.020;21.378;2023-07-02T01:00:57;16.02;;;13.60;;
63112;SDS011;49206;48.020;21.378;2023-07-02T01:02:03;22.80;;;14.68;;
63112;SDS011;49206;48.020;21.378;2023-07-02T01:03:12;16.80;;;13.52;;
63112;SDS011;49206;48.020;21.378;2023-07-02T01:04:16;16.55;;;13.88;;
63112;SDS011;49206;48.020;21.378;2023-07-02T01:05:28;16.77;;;14.15;;
63112;SDS011;49206;48.020;21.378;2023-07-02T01:06:43;16.45;;;14.60;;
63112;SDS011;49206;48.020;21.378;2023-07-02T01:07:48;15.20;;;13.63;;
63112;SDS011;49206;48.020;21.378;2023-07-02T01:08:59;16.95;;;14.55;;
63112;SDS011;49206;48.020;21.378;2023-07-02T01:10:30;17.40;;;14.85;;
63112;SDS011;49206;48.020;21.378;2023-07-02T01:11:44;17.77;;;14.43;;
63112;SDS011;49206;48.020;21.378;2023-07-02T01:13:09;16.95;;;14.18;;
63112;SDS011;49206;48.020;21.378;2023-07-02T01:14:26;17.52;;;14.05;;
63112;SDS011;49206;48.020;21.378;2023-07-02T01:15:33;15.73;;;14.02;;
63112;SDS011;49206;48.020;21.378;2023-07-02T01:16:38;17.65;;;13.93;;
63112;SDS011;49206;48.020;21.378;2023-07-02T01:17:45;19.23;;;14.85;;
63112;SDS011;49206;48.020;21.378;2023-07-02T01:19:02;20.85;;;13.93;;
63112;SDS011;49206;48.020;21.378;2023-07-02T01:20:09;17.15;;;14.70;;
63112;SDS011;49206;48.020;21.378;2023-07-02T01:21:20;15.55;;;13.95;;
63112;SDS011;49206;48.020;21.378;2023-07-02T01:22:27;17.25;;;14.15;;
63112;SDS011;49206;48.020;21.378;2023-07-02T01:23:33;18.27;;;15.90;;
63112;SDS011;49206;48.020;21.378;2023-07-02T01:24:39;15.40;;;13.88;;
63112;SDS011;49206;48.020;21.378;2023-07-02T01:25:54;17.50;;;14.00;;
63112;SDS011;49206;48.020;21.378;2023-07-02T01:26:58;17.00;;;15.20;;
63112;SDS011;49206;48.020;21.378;2023-07-02T01:28:09;18.55;;;15.35;;
63112;SDS011;49206;48.020;21.378;2023-07-02T01:29:24;17.38;;;14.85;;
63112;SDS011;49206;48.020;21.378;2023-07-02T01:30:37;17.30;;;14.40;;
63112;SDS011;49206;48.020;21.378;2023-07-02T01:31:41;16.27;;;14.57;;
63112;SDS011;49206;48.020;21.378;2023-07-02T01:32:48;16.42;;;14.73;;
63112;SDS011;49206;48.020;21.378;2023-07-02T01:33:51;19.00;;;15.85;;
63112;SDS011;49206;48.020;21.378;2023-07-02T01:34:56;17.00;;;15.25;;
63112;SDS011;49206;48.020;21.378;2023-07-02T01:36:18;18.33;;;15.38;;
63112;SDS011;49206;48.020;21.378;2023-07-02T01:37:23;17.77;;;15.88;;
63112;SDS011;49206;48.020;21.378;2023-07-02T01:38:31;19.63;;;16.02;;
63112;SDS011;49206;48.020;21.378;2023-07-02T01:39:47;21.92;;;16.42;;
63112;SDS011;49206;48.020;21.378;2023-07-02T01:41:01;17.92;;;16.02;;
63112;SDS011;49206;48.020;21.378;2023-07-02T01:42:10;18.30;;;15.27;;
63112;SDS011;49206;48.020;21.378;2023-07-02T01:43:21;19.40;;;15.43;;
63112;SDS011;49206;48.020;21.378;2023-07-02T01:44:33;18.40;;;15.70;;
63112;SDS011;49206;48.020;21.378;2023-07-02T01:45:41;21.92;;;15.93;;
63112;SDS011;49206;48.020;21.378;2023-07-02T01:47:00;19.42;;;16.15;;
63112;SDS011;49206;48.020;21.378;2023-07-02T01:48:04;20.02;;;16.45;;
63112;SDS011;49206;48.020;21.378;2023-07-02T01:49:07;19.77;;;16.35;;
63112;SDS011;49206;48.020;21.378;2023-07-02T01:50:13;20.77;;;16.48;;
63112;SDS011;49206;48.020;21.378;2023-07-02T01:51:24;19.77;;;16.45;;
63112;SDS011;49206;48.020;21.378;2023-07-02T01:53:39;19.58;;;15.88;;
63112;SDS011;49206;48.020;21.378;2023-07-02T01:54:45;21.23;;;16.45;;
63112;SDS011;49206;48.020;21.378;2023-07-02T01:55:53;20.10;;;16.50;;
63112;SDS011;49206;48.020;21.378;2023-07-02T01:57:00;18.48;;;16.48;;
63112;SDS011;49206;48.020;21.378;2023-07-02T01:58:03;19.02;;;16.50;;
63112;SDS011;49206;48.020;21.378;2023-07-02T01:59:14;20.65;;;17.33;;
63112;SDS011;49206;48.020;21.378;2023-07-02T02:00:23;18.33;;;16.40;;
63112;SDS011;49206;48.020;21.378;2023-07-02T02:01:29;17.08;;;15.27;;
63112;SDS011;49206;48.020;21.378;2023-07-02T02:02:49;17.50;;;15.10;;
63112;SDS011;49206;48.020;21.378;2023-07-02T02:03:56;20.98;;;16.02;;
63112;SDS011;49206;48.020;21.378;2023-07-02T02:05:00;19.60;;;16.75;;
63112;SDS011;49206;48.020;21.378;2023-07-02T02:06:11;19.20;;;16.02;;
63112;SDS011;49206;48.020;21.378;2023-07-02T02:07:24;17.38;;;15.65;;
63112;SDS011;49206;48.020;21.378;2023-07-02T02:08:32;17.75;;;15.85;;
63112;SDS011;49206;48.020;21.378;2023-07-02T02:09:45;19.23;;;15.85;;
63112;SDS011;49206;48.020;21.378;2023-07-02T02:12:23;18.38;;;15.55;;
63112;SDS011;49206;48.020;21.378;2023-07-02T02:13:29;16.98;;;15.18;;
63112;SDS011;49206;48.020;21.378;2023-07-02T02:14:39;23.25;;;15.60;;
63112;SDS011;49206;48.020;21.378;2023-07-02T02:15:44;19.33;;;15.75;;
63112;SDS011;49206;48.020;21.378;2023-07-02T02:16:49;17.35;;;15.55;;
63112;SDS011;49206;48.020;21.378;2023-07-02T02:18:03;19.25;;;15.57;;
63112;SDS011;49206;48.020;21.378;2023-07-02T02:19:08;17.67;;;15.77;;
63112;SDS011;49206;48.020;21.378;2023-07-02T02:20:18;19.27;;;16.52;;
63112;SDS011;49206;48.020;21.378;2023-07-02T02:21:24;17.48;;;15.68;;
63112;SDS011;49206;48.020;21.378;2023-07-02T02:22:31;17.38;;;15.18;;
63112;SDS011;49206;48.020;21.378;2023-07-02T02:23:39;19.13;;;16.40;;
63112;SDS011;49206;48.020;21.378;2023-07-02T02:24:50;19.92;;;15.52;;
63112;SDS011;49206;48.020;21.378;2023-07-02T02:25:59;19.55;;;16.10;;
63112;SDS011;49206;48.020;21.378;2023-07-02T02:27:01;21.02;;;15.30;;
63112;SDS011;49206;48.020;21.378;2023-07-02T02:28:04;22.08;;;15.55;;
63112;SDS011;49206;48.020;21.378;2023-07-02T02:29:09;17.60;;;15.80;;
63112;SDS011;49206;48.020;21.378;2023-07-02T02:30:12;18.40;;;16.23;;
63112;SDS011;49206;48.020;21.378;2023-07-02T02:31:20;21.73;;;15.68;;
63112;SDS011;49206;48.020;21.378;2023-07-02T02:32:33;22.23;;;16.90;;
63112;SDS011;49206;48.020;21.378;2023-07-02T02:33:39;19.25;;;17.05;;
63112;SDS011;49206;48.020;21.378;2023-07-02T02:34:41;18.92;;;16.75;;
63112;SDS011;49206;48.020;21.378;2023-07-02T02:35:46;19.73;;;17.00;;
63112;SDS011;49206;48.020;21.378;2023-07-02T02:37:02;21.42;;;18.25;;
63112;SDS011;49206;48.020;21.378;2023-07-02T02:38:15;19.40;;;16.52;;
63112;SDS011;49206;48.020;21.378;2023-07-02T02:39:35;21.40;;;17.48;;
63112;SDS011;49206;48.020;21.378;2023-07-02T02:40:40;19.85;;;17.75;;
63112;SDS011;49206;48.020;21.378;2023-07-02T02:41:49;19.98;;;16.85;;
63112;SDS011;49206;48.020;21.378;2023-07-02T02:43:07;21.27;;;16.83;;
63112;SDS011;49206;48.020;21.378;2023-07-02T02:44:13;23.23;;;16.95;;
63112;SDS011;49206;48.020;21.378;2023-07-02T02:45:18;21.73;;;16.48;;
63112;SDS011;49206;48.020;21.378;2023-07-02T02:46:23;18.58;;;16.30;;
63112;SDS011;49206;48.020;21.378;2023-07-02T02:47:35;26.05;;;17.20;;
63112;SDS011;49206;48.020;21.378;2023-07-02T02:48:48;22.63;;;18.40;;
63112;SDS011;49206;48.020;21.378;2023-07-02T02:49:54;19.10;;;17.02;;
63112;SDS011;49206;48.020;21.378;2023-07-02T02:50:59;20.38;;;17.25;;
63112;SDS011;49206;48.020;21.378;2023-07-02T02:52:11;19.77;;;16.80;;
63112;SDS011;49206;48.020;21.378;2023-07-02T02:53:17;21.02;;;17.02;;
63112;SDS011;49206;48.020;21.378;2023-07-02T02:54:25;21.20;;;16.92;;
63112;SDS011;49206;48.020;21.378;2023-07-02T02:55:31;27.10;;;17.98;;
63112;SDS011;49206;48.020;21.378;2023-07-02T02:56:35;20.50;;;17.25;;
63112;SDS011;49206;48.020;21.378;2023-07-02T02:57:38;20.65;;;16.30;;
63112;SDS011;49206;48.020;21.378;2023-07-02T02:58:43;21.42;;;17.50;;
63112;SDS011;49206;48.020;21.378;2023-07-02T02:59:46;22.83;;;16.70;;
63112;SDS011;49206;48.020;21.378;2023-07-02T03:00:48;22.40;;;15.95;;
63112;SDS011;49206;48.020;21.378;2023-07-02T03:01:59;20.67;;;16.77;;
63112;SDS011;49206;48.020;21.378;2023-07-02T03:03:03;22.85;;;17.58;;
63112;SDS011;49206;48.020;21.378;2023-07-02T03:04:11;19.88;;;16.48;;
63112;SDS011;49206;48.020;21.378;2023-07-02T03:05:35;22.20;;;16.08;;
63112;SDS011;49206;48.020;21.378;2023-07-02T03:06:57;20.27;;;15.90;;
63112;SDS011;49206;48.020;21.378;2023-07-02T03:08:02;19.70;;;16.02;;
63112;SDS011;49206;48.020;21.378;2023-07-02T03:09:17;22.30;;;16.27;;
63112;SDS011;49206;48.020;21.378;2023-07-02T03:10:28;18.27;;;15.77;;
63112;SDS011;49206;48.020;21.378;2023-07-02T03:11:31;23.25;;;16.23;;
63112;SDS011;49206;48.020;21.378;2023-07-02T03:12:36;19.20;;;15.00;;
63112;SDS011;49206;48.020;21.378;2023-07-02T03:13:39;19.08;;;15.95;;
63112;SDS011;49206;48.020;21.378;2023-07-02T03:14:56;19.05;;;15.57;;
63112;SDS011;49206;48.020;21.378;2023-07-02T03:16:02;18.42;;;15.48;;
63112;SDS011;49206;48.020;21.378;2023-07-02T03:17:04;20.15;;;15.18;;
63112;SDS011;49206;48.020;21.378;2023-07-02T03:18:13;19.73;;;15.82;;
63112;SDS011;49206;48.020;21.378;2023-07-02T03:19:15;18.38;;;15.80;;
63112;SDS011;49206;48.020;21.378;2023-07-02T03:20:25;22.00;;;16.15;;
63112;SDS011;49206;48.020;21.378;2023-07-02T03:21:44;20.60;;;15.52;;
63112;SDS011;49206;48.020;21.378;2023-07-02T03:22:48;18.20;;;15.85;;
63112;SDS011;49206;48.020;21.378;2023-07-02T03:23:53;21.27;;;16.33;;
63112;SDS011;49206;48.020;21.378;2023-07-02T03:24:59;18.55;;;15.48;;
63112;SDS011;49206;48.020;21.378;2023-07-02T03:26:02;22.20;;;16.35;;
63112;SDS011;49206;48.020;21.378;2023-07-02T03:27:05;20.55;;;17.55;;
63112;SDS011;49206;48.020;21.378;2023-07-02T03:28:08;22.67;;;16.80;;
63112;SDS011;49206;48.020;21.378;2023-07-02T03:29:14;20.55;;;17.52;;
63112;SDS011;49206;48.020;21.378;2023-07-02T03:32:00;22.85;;;15.93;;
63112;SDS011;49206;48.020;21.378;2023-07-02T03:33:03;21.73;;;15.98;;
63112;SDS011;49206;48.020;21.378;2023-07-02T03:34:25;19.23;;;16.70;;
63112;SDS011;49206;48.020;21.378;2023-07-02T03:35:29;20.48;;;16.90;;
63112;SDS011;49206;48.020;21.378;2023-07-02T03:36:36;21.05;;;15.93;;
63112;SDS011;49206;48.020;21.378;2023-07-02T03:37:49;19.73;;;16.10;;
63112;SDS011;49206;48.020;21.378;2023-07-02T03:38:55;21.33;;;16.95;;
63112;SDS011;49206;48.020;21.378;2023-07-02T03:40:01;20.73;;;17.13;;
63112;SDS011;49206;48.020;21.378;2023-07-02T03:41:09;19.92;;;16.35;;
63112;SDS011;49206;48.020;21.378;2023-07-02T03:42:21;19.63;;;15.68;;
63112;SDS011;49206;48.020;21.378;2023-07-02T03:43:26;19.55;;;16.33;;
63112;SDS011;49206;48.020;21.378;2023-07-02T03:44:30;21.05;;;16.13;;
63112;SDS011;49206;48.020;21.378;2023-07-02T03:45:35;23.08;;;15.82;;
63112;SDS011;49206;48.020;21.378;2023-07-02T03:46:43;19.48;;;15.27;;
63112;SDS011;49206;48.020;21.378;2023-07-02T03:47:48;20.02;;;16.73;;
63112;SDS011;49206;48.020;21.378;2023-07-02T03:48:55;18.60;;;15.48;;
63112;SDS011;49206;48.020;21.378;2023-07-02T03:50:00;20.58;;;16.15;;
63112;SDS011;49206;48.020;21.378;2023-07-02T03:51:16;21.20;;;15.63;;
63112;SDS011;49206;48.020;21.378;2023-07-02T03:52:18;18.90;;;14.98;;
63112;SDS011;49206;48.020;21.378;2023-07-02T03:53:22;17.52;;;14.98;;
63112;SDS011;49206;48.020;21.378;2023-07-02T03:54:28;19.90;;;15.52;;
63112;SDS011;49206;48.020;21.378;2023-07-02T03:55:34;18.23;;;15.05;;
63112;SDS011;49206;48.020;21.378;2023-07-02T03:56:40;19.88;;;15.68;;
63112;SDS011;49206;48.020;21.378;2023-07-02T03:57:51;18.33;;;14.82;;
63112;SDS011;49206;48.020;21.378;2023-07-02T03:58:55;19.48;;;14.68;;
63112;SDS011;49206;48.020;21.378;2023-07-02T04:00:01;18.60;;;14.63;;
63112;SDS011;49206;48.020;21.378;2023-07-02T04:01:15;17.65;;;14.52;;
63112;SDS011;49206;48.020;21.378;2023-07-02T04:02:21;18.17;;;14.55;;
63112;SDS011;49206;48.020;21.378;2023-07-02T04:03:41;23.63;;;14.95;;
63112;SDS011;49206;48.020;21.378;2023-07-02T04:04:46;17.73;;;14.05;;
63112;SDS011;49206;48.020;21.378;2023-07-02T04:05:59;18.52;;;14.48;;
63112;SDS011;49206;48.020;21.378;2023-07-02T04:07:13;18.38;;;15.27;;
63112;SDS011;49206;48.020;21.378;2023-07-02T04:08:18;17.80;;;13.75;;
63112;SDS011;49206;48.020;21.378;2023-07-02T04:09:33;17.00;;;13.98;;
63112;SDS011;49206;48.020;21.378;2023-07-02T04:10:35;16.85;;;13.35;;
63112;SDS011;49206;48.020;21.378;2023-07-02T04:11:42;17.50;;;14.75;;
63112;SDS011;49206;48.020;21.378;2023-07-02T04:13:56;16.25;;;13.88;;
63112;SDS011;49206;48.020;21.378;2023-07-02T04:15:06;15.95;;;12.98;;
63112;SDS011;49206;48.020;21.378;2023-07-02T04:16:21;17.40;;;13.73;;
63112;SDS011;49206;48.020;21.378;2023-07-02T04:17:28;15.90;;;12.73;;
63112;SDS011;49206;48.020;21.378;2023-07-02T04:18:36;15.93;;;13.20;;
63112;SDS011;49206;48.020;21.378;2023-07-02T04:19:46;15.05;;;13.25;;
63112;SDS011;49206;48.020;21.378;2023-07-02T04:20:51;19.80;;;13.32;;
63112;SDS011;49206;48.020;21.378;2023-07-02T04:21:54;17.42;;;12.15;;
63112;SDS011;49206;48.020;21.378;2023-07-02T04:22:58;17.30;;;13.68;;
63112;SDS011;49206;48.020;21.378;2023-07-02T04:24:01;16.13;;;13.65;;
63112;SDS011;49206;48.020;21.378;2023-07-02T04:25:11;15.90;;;12.68;;
63112;SDS011;49206;48.020;21.378;2023-07-02T04:26:44;18.10;;;11.98;;
63112;SDS011;49206;48.020;21.378;2023-07-02T04:28:17;16.88;;;12.48;;
63112;SDS011;49206;48.020;21.378;2023-07-02T04:29:23;15.93;;;12.40;;
63112;SDS011;49206;48.020;21.378;2023-07-02T04:30:35;14.35;;;12.52;;
63112;SDS011;49206;48.020;21.378;2023-07-02T04:31:38;15.20;;;12.55;;
63112;SDS011;49206;48.020;21.378;2023-07-02T04:32:44;15.27;;;13.50;;
63112;SDS011;49206;48.020;21.378;2023-07-02T04:33:46;15.25;;;12.50;;
63112;SDS011;49206;48.020;21.378;2023-07-02T04:34:55;16.30;;;12.63;;
63112;SDS011;49206;48.020;21.378;2023-07-02T04:35:58;14.13;;;12.60;;
63112;SDS011;49206;48.020;21.378;2023-07-02T04:38:07;14.95;;;12.05;;
63112;SDS011;49206;48.020;21.378;2023-07-02T04:39:18;14.45;;;12.00;;
63112;SDS011;49206;48.020;21.378;2023-07-02T04:40:21;15.32;;;13.73;;
63112;SDS011;49206;48.020;21.378;2023-07-02T04:41:37;16.08;;;12.55;;
63112;SDS011;49206;48.020;21.378;2023-07-02T04:42:48;15.60;;;12.80;;
63112;SDS011;49206;48.020;21.378;2023-07-02T04:44:02;16.25;;;12.65;;
63112;SDS011;49206;48.020;21.378;2023-07-02T04:45:05;13.65;;;11.85;;
63112;SDS011;49206;48.020;21.378;2023-07-02T04:46:30;16.05;;;12.75;;
63112;SDS011;49206;48.020;21.378;2023-07-02T04:47:35;14.13;;;12.18;;
63112;SDS011;49206;48.020;21.378;2023-07-02T04:48:52;14.35;;;12.57;;
63112;SDS011;49206;48.020;21.378;2023-07-02T04:50:03;14.50;;;13.00;;
63112;SDS011;49206;48.020;21.378;2023-07-02T04:51:09;16.05;;;12.15;;
63112;SDS011;49206;48.020;21.378;2023-07-02T04:52:12;14.15;;;12.60;;
63112;SDS011;49206;48.020;21.378;2023-07-02T04:53:20;17.83;;;13.43;;
63112;SDS011;49206;48.020;21.378;2023-07-02T04:54:34;20.25;;;13.18;;
63112;SDS011;49206;48.020;21.378;2023-07-02T04:55:47;15.48;;;12.70;;
63112;SDS011;49206;48.020;21.378;2023-07-02T04:56:50;15.02;;;13.40;;
63112;SDS011;49206;48.020;21.378;2023-07-02T04:57:54;16.95;;;13.50;;
63112;SDS011;49206;48.020;21.378;2023-07-02T04:58:57;17.00;;;13.52;;
63112;SDS011;49206;48.020;21.378;2023-07-02T05:00:04;15.57;;;13.55;;
63112;SDS011;49206;48.020;21.378;2023-07-02T05:01:11;15.65;;;13.75;;
63112;SDS011;49206;48.020;21.378;2023-07-02T05:02:17;19.00;;;13.95;;
63112;SDS011;49206;48.020;21.378;2023-07-02T05:03:22;17.83;;;14.00;;
63112;SDS011;49206;48.020;21.378;2023-07-02T05:04:25;17.60;;;13.18;;
63112;SDS011;49206;48.020;21.378;2023-07-02T05:05:30;16.15;;;13.60;;
63112;SDS011;49206;48.020;21.378;2023-07-02T05:06:33;17.55;;;13.65;;
63112;SDS011;49206;48.020;21.378;2023-07-02T05:07:40;15.02;;;13.18;;
63112;SDS011;49206;48.020;21.378;2023-07-02T05:08:47;17.05;;;13.15;;
63112;SDS011;49206;48.020;21.378;2023-07-02T05:10:57;15.38;;;12.52;;
63112;SDS011;49206;48.020;21.378;2023-07-02T05:12:08;15.55;;;12.52;;
63112;SDS011;49206;48.020;21.378;2023-07-02T05:13:11;14.85;;;12.88;;
63112;SDS011;49206;48.020;21.378;2023-07-02T05:14:15;15.48;;;12.23;;
63112;SDS011;49206;48.020;21.378;2023-07-02T05:15:17;16.25;;;13.30;;
63112;SDS011;49206;48.020;21.378;2023-07-02T05:16:22;14.85;;;11.68;;
63112;SDS011;49206;48.020;21.378;2023-07-02T05:17:25;16.10;;;12.90;;
63112;SDS011;49206;48.020;21.378;2023-07-02T05:18:28;14.82;;;12.98;;
63112;SDS011;49206;48.020;21.378;2023-07-02T05:19:32;16.17;;;12.50;;
63112;SDS011;49206;48.020;21.378;2023-07-02T05:20:34;14.13;;;12.10;;
63112;SDS011;49206;48.020;21.378;2023-07-02T05:21:42;14.63;;;12.82;;
63112;SDS011;49206;48.020;21.378;2023-07-02T05:22:46;15.45;;;12.88;;
63112;SDS011;49206;48.020;21.378;2023-07-02T05:23:49;15.05;;;12.30;;
63112;SDS011;49206;48.020;21.378;2023-07-02T05:25:01;16.23;;;13.00;;
63112;SDS011;49206;48.020;21.378;2023-07-02T05:26:04;16.17;;;11.98;;
63112;SDS011;49206;48.020;21.378;2023-07-02T05:27:07;16.88;;;12.38;;
63112;SDS011;49206;48.020;21.378;2023-07-02T05:28:11;13.68;;;12.20;;
63112;SDS011;49206;48.020;21.378;2023-07-02T05:29:17;14.80;;;12.38;;
63112;SDS011;49206;48.020;21.378;2023-07-02T05:30:24;15.45;;;12.40;;
63112;SDS011;49206;48.020;21.378;2023-07-02T05:31:27;14.48;;;12.25;;
63112;SDS011;49206;48.020;21.378;2023-07-02T05:32:30;15.63;;;13.45;;
63112;SDS011;49206;48.020;21.378;2023-07-02T05:33:33;16.00;;;12.32;;
63112;SDS011;49206;48.020;21.378;2023-07-02T05:34:35;15.52;;;13.27;;
63112;SDS011;49206;48.020;21.378;2023-07-02T05:35:38;15.13;;;12.05;;
63112;SDS011;49206;48.020;21.378;2023-07-02T05:36:44;13.82;;;12.15;;
63112;SDS011;49206;48.020;21.378;2023-07-02T05:37:56;13.60;;;12.05;;
63112;SDS011;49206;48.020;21.378;2023-07-02T05:38:58;14.95;;;12.43;;
63112;SDS011;49206;48.020;21.378;2023-07-02T05:40:00;14.73;;;11.63;;
63112;SDS011;49206;48.020;21.378;2023-07-02T05:41:03;14.00;;;12.18;;
63112;SDS011;49206;48.020;21.378;2023-07-02T05:42:12;16.42;;;12.88;;
63112;SDS011;49206;48.020;21.378;2023-07-02T05:44:57;15.35;;;12.10;;
63112;SDS011;49206;48.020;21.378;2023-07-02T05:47:35;13.77;;;11.90;;
63112;SDS011;49206;48.020;21.378;2023-07-02T05:48:40;14.75;;;12.15;;
63112;SDS011;49206;48.020;21.378;2023-07-02T05:49:46;14.82;;;11.85;;
63112;SDS011;49206;48.020;21.378;2023-07-02T05:51:12;12.88;;;11.57;;
63112;SDS011;49206;48.020;21.378;2023-07-02T05:52:14;14.93;;;11.70;;
63112;SDS011;49206;48.020;21.378;2023-07-02T05:53:24;15.02;;;11.63;;
63112;SDS011;49206;48.020;21.378;2023-07-02T05:54:26;13.90;;;11.93;;
63112;SDS011;49206;48.020;21.378;2023-07-02T05:55:29;14.82;;;12.43;;
63112;SDS011;49206;48.020;21.378;2023-07-02T05:57:36;14.13;;;11.90;;
63112;SDS011;49206;48.020;21.378;2023-07-02T05:58:39;13.73;;;11.90;;
63112;SDS011;49206;48.020;21.378;2023-07-02T05:59:49;15.38;;;11.70;;
63112;SDS011;49206;48.020;21.378;2023-07-02T06:00:51;13.68;;;12.13;;
63112;SDS011;49206;48.020;21.378;2023-07-02T06:01:54;13.98;;;11.60;;
63112;SDS011;49206;48.020;21.378;2023-07-02T06:02:58;14.30;;;12.35;;
63112;SDS011;49206;48.020;21.378;2023-07-02T06:04:01;13.35;;;11.95;;
63112;SDS011;49206;48.020;21.378;2023-07-02T06:05:04;14.05;;;11.60;;
63112;SDS011;49206;48.020;21.378;2023-07-02T06:06:08;12.80;;;11.05;;
63112;SDS011;49206;48.020;21.378;2023-07-02T06:07:11;14.25;;;11.90;;
63112;SDS011;49206;48.020;21.378;2023-07-02T06:08:14;13.90;;;11.02;;
63112;SDS011;49206;48.020;21.378;2023-07-02T06:09:17;14.70;;;12.43;;
63112;SDS011;49206;48.020;21.378;2023-07-02T06:10:20;15.68;;;13.07;;
63112;SDS011;49206;48.020;21.378;2023-07-02T06:11:25;13.30;;;10.35;;
63112;SDS011;49206;48.020;21.378;2023-07-02T06:12:27;14.65;;;11.43;;
63112;SDS011;49206;48.020;21.378;2023-07-02T06:13:30;13.68;;;11.70;;
63112;SDS011;49206;48.020;21.378;2023-07-02T06:14:35;14.30;;;11.80;;
63112;SDS011;49206;48.020;21.378;2023-07-02T06:15:38;14.80;;;11.68;;
63112;SDS011;49206;48.020;21.378;2023-07-02T06:16:41;14.63;;;13.20;;
63112;SDS011;49206;48.020;21.378;2023-07-02T06:17:44;14.25;;;11.65;;
63112;SDS011;49206;48.020;21.378;2023-07-02T06:18:46;14.93;;;11.93;;
63112;SDS011;49206;48.020;21.378;2023-07-02T06:19:49;12.13;;;10.85;;
63112;SDS011;49206;48.020;21.378;2023-07-02T06:20:52;13.38;;;11.45;;
63112;SDS011;49206;48.020;21.378;2023-07-02T06:21:54;14.65;;;11.38;;
63112;SDS011;49206;48.020;21.378;2023-07-02T06:22:57;14.38;;;11.98;;
63112;SDS011;49206;48.020;21.378;2023-07-02T06:24:00;13.00;;;10.75;;
63112;SDS011;49206;48.020;21.378;2023-07-02T06:25:04;13.57;;;11.18;;
63112;SDS011;49206;48.020;21.378;2023-07-02T06:26:10;13.02;;;11.52;;
63112;SDS011;49206;48.020;21.378;2023-07-02T06:27:13;13.05;;;11.25;;
63112;SDS011;49206;48.020;21.378;2023-07-02T06:28:16;14.52;;;11.65;;
63112;SDS011;49206;48.020;21.378;2023-07-02T06:29:18;13.20;;;11.73;;
63112;SDS011;49206;48.020;21.378;2023-07-02T06:30:21;13.48;;;12.02;;
63112;SDS011;49206;48.020;21.378;2023-07-02T06:31:25;12.93;;;11.52;;
63112;SDS011;49206;48.020;21.378;2023-07-02T06:32:29;12.68;;;11.35;;
63112;SDS011;49206;48.020;21.378;2023-07-02T06:33:42;12.38;;;10.93;;
63112;SDS011;49206;48.020;21.378;2023-07-02T06:39:10;12.95;;;11.00;;
63112;SDS011;49206;48.020;21.378;2023-07-02T06:40:13;15.48;;;12.20;;
63112;SDS011;49206;48.020;21.378;2023-07-02T06:41:17;14.10;;;11.75;;
63112;SDS011;49206;48.020;21.378;2023-07-02T06:42:20;14.35;;;11.82;;
63112;SDS011;49206;48.020;21.378;2023-07-02T06:43:23;12.02;;;10.82;;
63112;SDS011;49206;48.020;21.378;2023-07-02T06:44:28;12.95;;;11.07;;
63112;SDS011;49206;48.020;21.378;2023-07-02T06:45:30;13.98;;;11.90;;
63112;SDS011;49206;48.020;21.378;2023-07-02T06:46:33;13.82;;;12.00;;